Arkansas City, AR

5:24 PM CDT on October 22, 2014 (GMT -0500)
Mid Delta Regional | Change Station
CLOSE
Current Station
Airport
Location: Greenville,
Elevation: 131 ft
Nearby Weather Stations

Elev 131 ft 33.48 °N, 90.99 °W | Updated 31 minutes ago

Clear
Clear
72 °F
Feels Like 72 °F
N
15
Wind Variable Wind from NNE

Today
High -- | Low -- °F
--% Chance of Precip.
Yesterday
High -- | Low -- °F
Precip. -- in
7:15 AM 6:23 PM
Waning Crescent, 1% visible
Pressure 30.15 in
Visibility 10.0 miles
Clouds Clear
Dew Point 41 °F
Humidity 33%
Rainfall 0.00 in
Snow Depth Not available.
UV 1 out of 12
Pollen 2.90 out of 12
Air Quality Not available.
Flu Activity Sporadic
METAR KGLH 222153Z AUTO 03013KT 10SM CLR 22/05 A3013 RMK AO2 SLP208 T02220050

More Conditions Fewer Conditions

Pressure 30.15 in
Visibility 10.0 miles
Clouds Clear
Dew Point 41 °F
Humidity 33%
Rainfall 0.00 in
Snow Depth Not available.
UV 1 out of 12
Pollen 2.90 out of 12
Air Quality Not available.
Flu Activity Sporadic
METAR KGLH 222153Z AUTO 03013KT 10SM CLR 22/05 A3013 RMK AO2 SLP208 T02220050

More Conditions Fewer Conditions

10-Day Weather Forecast

Almanac

Astronomy

Oct. 22, 2014 Rise Set
Actual Time 7:15 AM CDT 6:23 PM CDT
Civil Twilight 6:50 AM CDT 6:48 PM CDT
Nautical Twilight 6:20 AM CDT 7:17 PM CDT
Astronomical Twilight 5:52 AM CDT 7:46 PM CDT
Moon 6:00 AM CDT 5:47 PM CDT
Length of Visible Light 11h 58m
Length of Day
11h 07m
Tomorrow will be 1m 57s shorter.
Waning Crescent, 1% of the Moon is Illuminated
Today
Waning Crescent
Oct 23
New
Oct 30
First Quarter
Nov 6
Full
Nov 14
Last Quarter

Today's Extremes

State Highs State Lows

Community

WunderPhotos

Upload Photos

1,764,064 photos uploaded!

WunderBlogs® & News

Nearby

Snow Depth

Station Depth Elevation
No new snow has been reported.

Earthquake Activity

City Distance Mag. Time & Date
No recent earthquake activity has been reported nearby.
Minimum magnitude displayed is 2.5.

Coastal Water Temperatures

Place Temperature
No Stations Reporting

Nearby Weather Stations